createdAt,value
2023-02-01T00:00:31.320Z,100435.06
2023-02-01T00:03:38.825Z,100435.69
2023-02-01T00:06:46.719Z,100441.84
2023-02-01T00:09:54.140Z,100445.81
2023-02-01T00:13:02.884Z,100434.97
2023-02-01T00:16:11.748Z,100430.47
2023-02-01T00:19:18.653Z,100428.69
2023-02-01T00:22:27.785Z,100430.56
2023-02-01T00:25:37.043Z,100435.12
2023-02-01T00:28:46.331Z,100429.19
2023-02-01T00:31:58.749Z,100436.66
2023-02-01T00:35:11.399Z,100437.25
2023-02-01T00:38:21.170Z,100433.22
2023-02-01T00:41:29.476Z,100434.41
2023-02-01T00:44:39.754Z,100428.84
2023-02-01T00:47:45.996Z,100422.75
2023-02-01T00:50:52.877Z,100418.34
2023-02-01T00:54:01.446Z,100424.69
2023-02-01T00:57:09.456Z,100428.34
2023-02-01T01:00:18.739Z,100432.66
2023-02-01T01:03:25.604Z,100419.41
2023-02-01T01:06:36.043Z,100430.84
2023-02-01T01:09:43.061Z,100425.34
2023-02-01T01:12:50.747Z,100403.09
2023-02-01T01:15:58.618Z,100390.72
2023-02-01T01:19:10.515Z,100390.72
2023-02-01T01:22:16.317Z,100377.38
2023-02-01T01:25:24.362Z,100376.91
2023-02-01T01:28:33.299Z,100368.66
2023-02-01T01:31:43.871Z,100370.53
2023-02-01T01:34:53.323Z,100368.97
2023-02-01T01:38:01.747Z,100359.31
2023-02-01T01:41:12.759Z,100359.69
2023-02-01T01:44:38.410Z,100353.75
2023-02-01T01:47:50.453Z,100353.91
2023-02-01T01:51:03.676Z,100368.63
2023-02-01T01:54:20.690Z,100365.41
2023-02-01T01:57:31.796Z,100365.22
2023-02-01T02:00:39.099Z,100363.41
2023-02-01T02:03:52.220Z,100350.38
2023-02-01T02:07:03.392Z,100353.09
2023-02-01T02:10:15.738Z,100341.75
2023-02-01T02:13:23.936Z,100346.50
2023-02-01T02:16:44.644Z,100355.56
2023-02-01T02:19:54.636Z,100348.75
2023-02-01T02:23:02.854Z,100349.69
2023-02-01T02:26:14.041Z,100353.66
2023-02-01T02:29:21.015Z,100355.87
2023-02-01T02:32:47.586Z,100353.41
2023-02-01T02:36:03.991Z,100344.34
2023-02-01T02:39:24.007Z,100330.88
2023-02-01T02:43:02.322Z,100335.06
2023-02-01T02:46:49.735Z,100326.72
2023-02-01T02:50:31.510Z,100337.78
2023-02-01T02:54:07.155Z,100334.09
2023-02-01T02:57:37.744Z,100334.19
2023-02-01T03:01:04.042Z,100328.53
2023-02-01T03:04:21.164Z,100320.22
2023-02-01T03:07:46.666Z,100314.84
2023-02-01T03:10:56.005Z,100310.53
2023-02-01T03:14:05.084Z,100296.12
2023-02-01T03:17:20.525Z,100302.84
2023-02-01T03:20:30.448Z,100300.12
2023-02-01T03:23:42.533Z,100299.75
2023-02-01T03:26:58.242Z,100296.06
2023-02-01T03:30:19.676Z,100286.72
2023-02-01T03:33:29.292Z,100300.47
2023-02-01T03:36:46.861Z,100290.19
2023-02-01T03:40:10.469Z,100287.00
2023-02-01T03:43:20.195Z,100291.28
2023-02-01T03:46:37.305Z,100289.62
2023-02-01T03:49:57.047Z,100277.22
2023-02-01T03:53:11.950Z,100285.16
2023-02-01T03:56:20.434Z,100292.19
2023-02-01T03:59:29.594Z,100292.19
2023-02-01T04:02:37.356Z,100274.13
2023-02-01T04:05:45.420Z,100291.25
2023-02-01T04:08:51.991Z,100295.97
2023-02-01T04:12:00.787Z,100284.28
2023-02-01T04:15:07.392Z,100296.44
2023-02-01T04:18:15.093Z,100298.34
2023-02-01T04:21:24.843Z,100293.47
2023-02-01T04:24:32.974Z,100303.12
2023-02-01T04:30:49.356Z,100285.97
2023-02-01T04:33:57.025Z,100289.66
2023-02-01T04:37:07.378Z,100297.66
2023-02-01T04:40:15.773Z,100300.03
2023-02-01T04:43:27.444Z,100297.53
2023-02-01T04:46:36.410Z,100307.22
2023-02-01T04:49:44.745Z,100309.69
2023-02-01T04:52:54.340Z,100305.91
2023-02-01T04:56:03.416Z,100311.75
2023-02-01T04:59:10.646Z,100314.63
2023-02-01T05:02:18.831Z,100326.81
2023-02-01T05:05:26.519Z,100320.03
2023-02-01T05:08:38.732Z,100315.59
2023-02-01T05:12:06.881Z,100322.63
2023-02-01T05:15:18.863Z,100313.44
2023-02-01T05:18:30.748Z,100321.56
2023-02-01T05:21:41.142Z,100324.78
2023-02-01T05:24:51.646Z,100333.38
2023-02-01T05:27:58.049Z,100336.16
2023-02-01T05:31:14.734Z,100333.19
2023-02-01T05:34:23.598Z,100338.53
2023-02-01T05:37:30.907Z,100336.28
2023-02-01T05:40:39.595Z,100321.53
2023-02-01T05:43:47.851Z,100332.47
2023-02-01T05:46:56.758Z,100328.03
2023-02-01T05:50:05.929Z,100330.81
2023-02-01T05:53:14.498Z,100329.88
2023-02-01T05:56:19.480Z,100337.25
2023-02-01T05:59:24.812Z,100334.75
2023-02-01T06:02:30.215Z,100342.13
2023-02-01T06:05:36.628Z,100349.25
2023-02-01T06:08:41.599Z,100344.12
2023-02-01T06:11:45.855Z,100339.50
2023-02-01T06:14:49.664Z,100342.47
2023-02-01T06:17:54.557Z,100344.25
2023-02-01T06:21:05.247Z,100364.75
2023-02-01T06:24:10.196Z,100376.66
2023-02-01T06:27:14.664Z,100372.63
2023-02-01T06:30:19.443Z,100383.81
2023-02-01T06:33:25.301Z,100378.94
2023-02-01T06:36:31.521Z,100387.62
2023-02-01T06:39:36.083Z,100388.34
2023-02-01T06:42:41.067Z,100391.31
2023-02-01T06:45:48.504Z,100406.06
2023-02-01T06:48:54.455Z,100392.50
2023-02-01T06:52:01.488Z,100388.56
2023-02-01T06:55:05.958Z,100391.69
2023-02-01T06:58:09.932Z,100405.72
2023-02-01T07:01:15.533Z,100399.66
2023-02-01T07:04:22.428Z,100401.06
2023-02-01T07:07:27.479Z,100396.41
2023-02-01T07:10:31.919Z,100389.37
2023-02-01T07:13:36.982Z,100365.19
2023-02-01T07:16:40.541Z,100388.28
2023-02-01T07:19:44.322Z,100385.91
2023-02-01T07:22:47.473Z,100391.25
2023-02-01T07:25:54.248Z,100387.13
2023-02-01T07:28:57.342Z,100392.22
2023-02-01T07:32:01.609Z,100400.78
2023-02-01T07:35:05.461Z,100401.94
2023-02-01T07:38:10.317Z,100401.50
2023-02-01T07:41:14.251Z,100404.78
2023-02-01T07:44:20.277Z,100404.84
2023-02-01T07:47:24.333Z,100407.75
2023-02-01T07:50:31.250Z,100413.44
2023-02-01T07:53:39.295Z,100418.62
2023-02-01T07:56:45.210Z,100417.63
2023-02-01T08:00:08.588Z,100416.56
2023-02-01T08:03:17.343Z,100419.25
2023-02-01T08:06:24.165Z,100418.81
2023-02-01T08:09:29.060Z,100412.00
2023-02-01T08:12:34.404Z,100410.50
2023-02-01T08:15:37.757Z,100425.50
2023-02-01T08:18:44.748Z,100437.00
2023-02-01T08:21:50.629Z,100428.25
2023-02-01T08:25:03.779Z,100423.22
2023-02-01T08:28:09.469Z,100435.06
2023-02-01T08:31:16.235Z,100448.69
2023-02-01T08:34:20.698Z,100463.28
2023-02-01T08:37:25.600Z,100464.22
2023-02-01T08:40:30.244Z,100463.84
2023-02-01T08:43:33.835Z,100475.03
2023-02-01T08:46:37.614Z,100477.53
2023-02-01T08:49:41.831Z,100468.53
2023-02-01T08:52:46.041Z,100466.75
2023-02-01T08:55:50.965Z,100462.16
2023-02-01T08:58:55.700Z,100458.34
2023-02-01T09:02:01.837Z,100454.09
2023-02-01T09:05:07.081Z,100439.38
2023-02-01T09:08:11.763Z,100461.84
2023-02-01T09:11:17.623Z,100440.97
2023-02-01T09:14:21.681Z,100438.94
2023-02-01T09:20:31.610Z,100432.53
2023-02-01T09:23:35.116Z,100447.72
2023-02-01T09:26:39.040Z,100443.41
2023-02-01T09:29:46.433Z,100446.75
2023-02-01T09:32:52.855Z,100452.56
2023-02-01T09:35:57.064Z,100430.25
2023-02-01T09:39:03.844Z,100438.97
2023-02-01T09:42:22.376Z,100453.41
2023-02-01T09:45:45.485Z,100443.75
2023-02-01T09:48:50.953Z,100456.72
2023-02-01T09:51:57.331Z,100443.38
2023-02-01T09:55:07.852Z,100447.31
2023-02-01T09:58:32.647Z,100444.59
2023-02-01T10:01:42.828Z,100429.22
2023-02-01T10:04:48.811Z,100430.81
2023-02-01T10:08:02.830Z,100418.59
2023-02-01T10:11:09.994Z,100410.03
2023-02-01T10:14:16.141Z,100427.44
2023-02-01T10:17:38.585Z,100414.03
2023-02-01T10:20:41.985Z,100405.88
2023-02-01T10:23:48.685Z,100397.16
2023-02-01T10:26:59.327Z,100386.72
2023-02-01T10:30:13.137Z,100375.47
2023-02-01T10:33:18.684Z,100383.41
2023-02-01T10:36:30.413Z,100389.47
2023-02-01T10:39:34.844Z,100389.19
2023-02-01T10:42:38.300Z,100375.47
2023-02-01T10:45:44.305Z,100387.53
2023-02-01T10:48:48.467Z,100384.75
2023-02-01T10:52:03.668Z,100377.59
2023-02-01T10:55:26.597Z,100377.59
2023-02-01T10:58:37.634Z,100369.97
2023-02-01T11:01:43.482Z,100367.00
2023-02-01T11:04:48.653Z,100358.31
2023-02-01T11:08:00.998Z,100342.66
2023-02-01T11:11:07.485Z,100352.66
2023-02-01T11:14:26.211Z,100346.81
2023-02-01T11:17:37.702Z,100341.72
2023-02-01T11:20:43.566Z,100334.25
2023-02-01T11:23:47.242Z,100331.03
2023-02-01T11:26:51.301Z,100339.00
2023-02-01T11:29:57.701Z,100326.25
2023-02-01T11:33:05.319Z,100334.03
2023-02-01T11:36:11.487Z,100320.84
2023-02-01T11:39:15.136Z,100327.25
2023-02-01T11:42:19.285Z,100335.44
2023-02-01T11:45:35.920Z,100326.16
2023-02-01T11:48:39.124Z,100327.03
2023-02-01T11:52:01.106Z,100318.09
2023-02-01T11:55:14.242Z,100314.63
2023-02-01T11:58:27.446Z,100298.75
2023-02-01T12:01:50.289Z,100280.53
2023-02-01T12:04:53.649Z,100281.81
2023-02-01T12:08:03.492Z,100273.84
2023-02-01T12:11:07.304Z,100279.44
2023-02-01T12:14:26.297Z,100268.88
2023-02-01T12:17:45.668Z,100273.91
2023-02-01T12:20:52.823Z,100273.84
2023-02-01T12:24:06.329Z,100273.84
2023-02-01T12:27:19.652Z,100278.38
2023-02-01T12:30:41.508Z,100286.25
2023-02-01T12:33:47.698Z,100297.19
2023-02-01T12:36:51.313Z,100303.44
2023-02-01T12:40:01.001Z,100304.59
2023-02-01T12:43:22.947Z,100317.72
2023-02-01T12:46:30.148Z,100320.16
2023-02-01T12:49:43.198Z,100309.00
2023-02-01T12:52:51.321Z,100295.53
2023-02-01T12:56:02.373Z,100284.22
2023-02-01T12:59:09.774Z,100278.28
2023-02-01T13:02:26.547Z,100282.06
2023-02-01T13:05:38.983Z,100257.28
2023-02-01T13:08:49.271Z,100248.72
2023-02-01T13:11:54.499Z,100235.41
2023-02-01T13:15:01.001Z,100233.91
2023-02-01T13:18:07.483Z,100225.75
2023-02-01T13:21:20.143Z,100212.47
2023-02-01T13:24:46.627Z,100202.16
2023-02-01T13:27:54.889Z,100191.97
2023-02-01T13:31:12.416Z,100176.28
2023-02-01T13:34:43.583Z,100183.06
2023-02-01T13:37:48.115Z,100185.56
2023-02-01T13:41:04.430Z,100197.00
2023-02-01T13:44:16.274Z,100214.81
2023-02-01T13:47:24.973Z,100230.22
2023-02-01T13:50:36.951Z,100224.53
2023-02-01T13:53:46.479Z,100232.09
2023-02-01T13:56:49.680Z,100226.13
2023-02-01T13:59:56.459Z,100221.25
2023-02-01T14:03:02.949Z,100222.09
2023-02-01T14:06:16.624Z,100197.94
2023-02-01T14:09:22.123Z,100201.00
2023-02-01T14:12:45.354Z,100208.41
2023-02-01T14:16:12.324Z,100212.31
2023-02-01T14:19:21.555Z,100219.16
2023-02-01T14:22:28.382Z,100227.59
2023-02-01T14:25:36.183Z,100226.09
2023-02-01T14:28:44.855Z,100258.69
2023-02-01T14:32:05.047Z,100259.84
2023-02-01T14:35:18.923Z,100267.53
2023-02-01T14:38:24.586Z,100262.50
2023-02-01T14:41:29.550Z,100256.47
2023-02-01T14:44:38.747Z,100257.13
2023-02-01T14:47:43.528Z,100253.72
2023-02-01T14:50:51.245Z,100249.81
2023-02-01T14:53:54.974Z,100260.78
2023-02-01T14:57:00.453Z,100255.78
2023-02-01T15:00:18.891Z,100268.09
2023-02-01T15:03:47.696Z,100261.06
2023-02-01T15:06:53.735Z,100256.50
2023-02-01T15:10:00.340Z,100258.06
2023-02-01T15:13:06.631Z,100257.91
2023-02-01T15:16:12.649Z,100247.78
2023-02-01T15:19:16.838Z,100258.03
2023-02-01T15:22:21.587Z,100242.50
2023-02-01T15:25:26.715Z,100235.69
2023-02-01T15:28:31.455Z,100210.34
2023-02-01T15:31:40.000Z,100219.28
2023-02-01T15:34:51.329Z,100221.22
2023-02-01T15:38:15.548Z,100225.91
2023-02-01T15:41:23.623Z,100221.03
2023-02-01T15:44:44.022Z,100239.28
2023-02-01T15:47:51.893Z,100226.34
2023-02-01T15:50:58.389Z,100231.84
2023-02-01T15:54:06.297Z,100228.56
2023-02-01T15:57:10.577Z,100239.44
2023-02-01T16:00:30.974Z,100239.03
2023-02-01T16:03:38.040Z,100239.91
2023-02-01T16:06:47.006Z,100248.78
2023-02-01T16:09:56.047Z,100246.44
2023-02-01T16:13:02.076Z,100257.13
2023-02-01T16:16:14.465Z,100283.94
2023-02-01T16:19:21.487Z,100280.00
2023-02-01T16:22:28.723Z,100281.28
2023-02-01T16:25:38.258Z,100271.97
2023-02-01T16:28:43.836Z,100253.97
2023-02-01T16:31:50.835Z,100255.06
2023-02-01T16:34:55.950Z,100264.34
2023-02-01T16:38:01.152Z,100266.03
2023-02-01T16:41:07.194Z,100254.03
2023-02-01T16:44:14.032Z,100258.59
2023-02-01T16:47:23.572Z,100243.47
2023-02-01T16:50:30.023Z,100256.53
2023-02-01T16:53:53.074Z,100248.66
2023-02-01T16:57:01.442Z,100265.56
2023-02-01T17:00:22.257Z,100248.94
2023-02-01T17:03:28.961Z,100240.59
2023-02-01T17:06:38.701Z,100231.50
2023-02-01T17:09:44.687Z,100239.00
2023-02-01T17:12:51.219Z,100245.84
2023-02-01T17:16:16.245Z,100239.31
2023-02-01T17:19:28.884Z,100233.44
2023-02-01T17:22:35.907Z,100240.41
2023-02-01T17:25:44.068Z,100221.53
2023-02-01T17:28:53.823Z,100228.31
2023-02-01T17:32:03.898Z,100233.69
2023-02-01T17:35:22.813Z,100232.94
2023-02-01T17:38:28.778Z,100238.75
2023-02-01T17:41:35.600Z,100260.06
2023-02-01T17:44:40.607Z,100248.16
2023-02-01T17:47:49.387Z,100257.25
2023-02-01T17:50:59.553Z,100267.37
2023-02-01T17:54:05.367Z,100272.41
2023-02-01T17:57:14.044Z,100276.44
2023-02-01T18:00:19.815Z,100254.94
2023-02-01T18:03:27.812Z,100275.13
2023-02-01T18:06:37.721Z,100263.19
2023-02-01T18:09:43.924Z,100281.25
2023-02-01T18:12:50.428Z,100280.25
2023-02-01T18:15:57.129Z,100276.38
2023-02-01T18:19:05.808Z,100268.25
2023-02-01T18:22:19.074Z,100266.91
2023-02-01T18:25:27.614Z,100275.84
2023-02-01T18:28:36.390Z,100256.81
2023-02-01T18:31:48.750Z,100268.69
2023-02-01T18:34:59.623Z,100265.09
2023-02-01T18:38:07.971Z,100262.97
2023-02-01T18:41:24.386Z,100263.50
2023-02-01T18:44:35.309Z,100262.16
2023-02-01T18:47:43.650Z,100253.31
2023-02-01T18:50:54.509Z,100256.78
2023-02-01T18:54:01.689Z,100260.87
2023-02-01T18:57:09.224Z,100266.84
2023-02-01T19:00:18.536Z,100271.28
2023-02-01T19:03:33.548Z,100264.50
2023-02-01T19:06:52.757Z,100272.47
2023-02-01T19:10:00.755Z,100270.72
2023-02-01T19:13:05.716Z,100262.03
2023-02-01T19:16:13.830Z,100265.91
2023-02-01T19:19:20.461Z,100259.25
2023-02-01T19:22:24.127Z,100253.28
2023-02-01T19:25:31.750Z,100249.72
2023-02-01T19:28:37.935Z,100241.72
2023-02-01T19:31:47.392Z,100240.47
2023-02-01T19:34:54.137Z,100229.69
2023-02-01T19:38:00.196Z,100226.09
2023-02-01T19:41:04.598Z,100218.62
2023-02-01T19:44:11.320Z,100216.84
2023-02-01T19:47:17.371Z,100226.25
2023-02-01T19:50:25.852Z,100230.66
2023-02-01T19:53:32.662Z,100227.19
2023-02-01T19:56:38.400Z,100213.66
2023-02-01T19:59:43.104Z,100213.66
2023-02-01T20:02:48.891Z,100226.25
2023-02-01T20:05:55.676Z,100220.16
2023-02-01T20:09:01.144Z,100202.06
2023-02-01T20:12:06.913Z,100213.66
2023-02-01T20:15:13.433Z,100231.41
2023-02-01T20:18:17.987Z,100231.38
2023-02-01T20:21:25.738Z,100235.38
2023-02-01T20:24:31.797Z,100247.53
2023-02-01T20:27:41.811Z,100239.78
2023-02-01T20:30:50.076Z,100251.28
2023-02-01T20:33:58.501Z,100232.88
2023-02-01T20:37:06.624Z,100252.50
2023-02-01T20:40:14.714Z,100252.38
2023-02-01T20:43:25.164Z,100246.50
2023-02-01T20:46:33.915Z,100257.94
2023-02-01T20:49:42.089Z,100262.72
2023-02-01T20:52:46.769Z,100272.72
2023-02-01T20:55:58.356Z,100259.28
2023-02-01T20:59:11.980Z,100269.78
2023-02-01T21:02:21.301Z,100240.28
2023-02-01T21:05:41.011Z,100247.25
2023-02-01T21:08:47.768Z,100242.88
2023-02-01T21:11:53.490Z,100246.94
2023-02-01T21:14:59.350Z,100239.50
2023-02-01T21:18:05.352Z,100233.75
2023-02-01T21:21:12.553Z,100241.06
2023-02-01T21:24:18.901Z,100238.88
2023-02-01T21:27:27.673Z,100241.50
2023-02-01T21:30:35.973Z,100239.31
2023-02-01T21:33:44.124Z,100230.50
2023-02-01T21:36:51.115Z,100246.09
2023-02-01T21:39:57.521Z,100230.41
2023-02-01T21:43:04.810Z,100241.50
2023-02-01T21:46:12.920Z,100261.66
2023-02-01T21:49:19.199Z,100253.78
2023-02-01T21:52:27.107Z,100245.75
2023-02-01T21:55:36.253Z,100247.19
2023-02-01T21:58:46.263Z,100238.69
2023-02-01T22:01:56.693Z,100242.06
2023-02-01T22:05:06.880Z,100248.78
2023-02-01T22:08:12.863Z,100224.16
2023-02-01T22:11:21.338Z,100232.78
2023-02-01T22:14:30.166Z,100217.91
2023-02-01T22:17:44.009Z,100208.00
2023-02-01T22:20:54.410Z,100206.19
2023-02-01T22:24:02.739Z,100197.03
2023-02-01T22:27:13.719Z,100196.44
2023-02-01T22:30:21.517Z,100194.91
2023-02-01T22:33:27.632Z,100185.84
2023-02-01T22:36:34.746Z,100176.41
2023-02-01T22:39:40.999Z,100181.53
2023-02-01T22:42:50.116Z,100182.78
2023-02-01T22:45:56.925Z,100180.06
2023-02-01T22:49:05.057Z,100184.94
2023-02-01T22:52:10.597Z,100184.53
2023-02-01T22:55:16.968Z,100199.75
2023-02-01T22:58:23.023Z,100188.00
2023-02-01T23:01:29.172Z,100178.63
2023-02-01T23:04:35.568Z,100173.81
2023-02-01T23:07:42.640Z,100185.69
2023-02-01T23:10:49.462Z,100162.87
2023-02-01T23:13:59.313Z,100161.06
2023-02-01T23:17:06.621Z,100165.66
2023-02-01T23:20:16.772Z,100175.44
2023-02-01T23:23:23.588Z,100160.66
2023-02-01T23:26:33.642Z,100190.69
2023-02-01T23:29:39.757Z,100170.28
2023-02-01T23:32:45.886Z,100147.72
2023-02-01T23:36:01.990Z,100138.44
2023-02-01T23:39:08.838Z,100136.44
2023-02-01T23:42:17.029Z,100140.56
2023-02-01T23:45:27.740Z,100134.31
2023-02-01T23:48:34.301Z,100141.06
2023-02-01T23:51:42.887Z,100139.78
2023-02-01T23:54:50.353Z,100130.84
2023-02-01T23:57:58.027Z,100141.56
